Time;durP1;ratioP1;P1;durP2;ratioP2;P2;SDS_P1;SDS_P2;PMS_P1;PMS_P2;Temp;Humidity;BMP_temperature;BMP_pressure;BME280_temperature;BME280_humidity;BME280_pressure;Samples;Min_cycle;Max_cycle;Signal;HPM_P1;HPM_P2
2022/08/27 00:00:36;;;;;;;6.60;3.80;;;;;;;;;;4955785;28;20448;-82
2022/08/27 00:03:02;;;;;;;6.00;3.85;;;;;;;;;;4964675;28;20038;-82
2022/08/27 00:05:29;;;;;;;6.80;3.85;;;;;;;;;;4954470;28;20094;-82
2022/08/27 00:07:55;;;;;;;5.72;3.00;;;;;;;;;;4954083;28;20082;-82
2022/08/27 00:10:23;;;;;;;5.07;3.60;;;;;;;;;;4951608;28;20039;-82
2022/08/27 00:12:50;;;;;;;4.22;2.88;;;;;;;;;;4952249;28;20408;-82
2022/08/27 00:15:16;;;;;;;4.82;3.20;;;;;;;;;;4968248;28;20050;-82
2022/08/27 00:17:44;;;;;;;5.47;3.33;;;;;;;;;;4968615;28;22437;-82
2022/08/27 00:20:14;;;;;;;6.18;3.88;;;;;;;;;;4952852;28;20090;-82
2022/08/27 00:22:41;;;;;;;6.80;3.78;;;;;;;;;;4951289;28;20047;-82
2022/08/27 00:25:07;;;;;;;5.28;3.60;;;;;;;;;;4968196;28;20040;-82
2022/08/27 00:27:33;;;;;;;6.43;3.90;;;;;;;;;;4954372;28;20058;-81
2022/08/27 00:29:59;;;;;;;4.25;3.60;;;;;;;;;;4951241;28;20067;-82
2022/08/27 00:32:26;;;;;;;4.60;3.40;;;;;;;;;;4954938;28;20047;-81
2022/08/27 00:34:52;;;;;;;5.63;3.65;;;;;;;;;;4940000;29;20500;-82
2022/08/27 00:37:19;;;;;;;6.13;3.55;;;;;;;;;;4962704;28;20045;-81
2022/08/27 00:39:45;;;;;;;5.28;3.22;;;;;;;;;;4953296;28;20059;-81
2022/08/27 00:42:11;;;;;;;7.30;3.40;;;;;;;;;;4964723;28;20122;-81
2022/08/27 00:44:38;;;;;;;4.05;3.20;;;;;;;;;;4966004;28;20070;-81
2022/08/27 00:47:06;;;;;;;4.95;3.22;;;;;;;;;;4967956;28;20047;-81
2022/08/27 00:49:44;;;;;;;5.38;3.33;;;;;;;;;;4958661;28;20055;-82
2022/08/27 00:52:18;;;;;;;4.70;2.97;;;;;;;;;;4952709;28;20044;-81
2022/08/27 00:54:44;;;;;;;6.43;3.45;;;;;;;;;;4952353;28;20047;-81
2022/08/27 00:57:11;;;;;;;5.13;3.25;;;;;;;;;;4952015;28;20074;-81
2022/08/27 00:59:37;;;;;;;4.85;3.30;;;;;;;;;;4955543;28;20050;-81
2022/08/27 01:02:19;;;;;;;6.38;3.45;;;;;;;;;;4963018;28;20039;-82
2022/08/27 01:04:48;;;;;;;6.20;3.10;;;;;;;;;;4957629;28;20536;-82
2022/08/27 01:07:14;;;;;;;7.68;3.42;;;;;;;;;;4951506;28;21067;-82
2022/08/27 01:09:41;;;;;;;5.88;3.10;;;;;;;;;;4961142;28;20051;-81
2022/08/27 01:12:08;;;;;;;6.47;3.10;;;;;;;;;;4951608;28;20047;-81
2022/08/27 01:14:34;;;;;;;4.55;2.90;;;;;;;;;;4951730;28;20114;-81
2022/08/27 01:17:01;;;;;;;4.05;2.90;;;;;;;;;;4951112;28;20047;-81
2022/08/27 01:19:35;;;;;;;5.75;3.17;;;;;;;;;;4951623;28;20476;-81
2022/08/27 01:22:07;;;;;;;5.95;3.20;;;;;;;;;;4949801;28;20043;-81
2022/08/27 01:24:41;;;;;;;5.60;2.80;;;;;;;;;;4951060;28;20386;-82
2022/08/27 01:27:09;;;;;;;5.65;2.95;;;;;;;;;;4957954;28;20047;-82
2022/08/27 01:29:36;;;;;;;5.55;3.40;;;;;;;;;;4954418;28;20062;-82
2022/08/27 01:32:11;;;;;;;5.45;3.28;;;;;;;;;;4956446;28;20567;-82
2022/08/27 01:34:37;;;;;;;4.88;3.15;;;;;;;;;;4954045;28;20405;-81
2022/08/27 01:37:05;;;;;;;5.40;3.30;;;;;;;;;;4955334;28;20050;-82
2022/08/27 01:39:31;;;;;;;5.07;3.17;;;;;;;;;;4968258;28;20571;-82
2022/08/27 01:42:06;;;;;;;6.57;3.08;;;;;;;;;;4953681;28;20051;-82
2022/08/27 01:44:50;;;;;;;4.50;3.33;;;;;;;;;;4959007;28;20047;-82
2022/08/27 01:47:17;;;;;;;4.90;2.80;;;;;;;;;;4956078;28;20047;-82
2022/08/27 01:49:43;;;;;;;5.95;3.30;;;;;;;;;;4954378;28;20493;-82
2022/08/27 01:52:10;;;;;;;5.95;3.20;;;;;;;;;;4953717;28;20050;-82
2022/08/27 01:54:37;;;;;;;5.50;3.22;;;;;;;;;;4969440;28;20042;-82
2022/08/27 01:57:03;;;;;;;8.80;3.67;;;;;;;;;;4956936;28;20051;-81
2022/08/27 01:59:29;;;;;;;5.80;3.35;;;;;;;;;;4968167;28;20074;-81
2022/08/27 02:01:55;;;;;;;4.70;3.17;;;;;;;;;;4974371;28;20094;-81
2022/08/27 02:04:22;;;;;;;5.45;3.30;;;;;;;;;;4963217;28;20039;-82
2022/08/27 02:06:48;;;;;;;6.40;2.80;;;;;;;;;;4955878;28;20047;-82
2022/08/27 02:09:14;;;;;;;4.53;2.85;;;;;;;;;;4952401;28;20374;-82
2022/08/27 02:11:40;;;;;;;5.75;3.10;;;;;;;;;;4953593;28;20083;-81
2022/08/27 02:14:06;;;;;;;4.78;3.00;;;;;;;;;;4964323;28;20093;-81
2022/08/27 02:16:32;;;;;;;5.53;2.80;;;;;;;;;;4968256;28;20501;-81
2022/08/27 02:18:59;;;;;;;5.10;3.20;;;;;;;;;;4953654;28;20047;-81
2022/08/27 02:21:26;;;;;;;7.18;3.05;;;;;;;;;;4958784;28;20039;-81
2022/08/27 02:23:53;;;;;;;4.30;2.80;;;;;;;;;;4970239;28;20202;-81
2022/08/27 02:26:20;;;;;;;5.43;3.08;;;;;;;;;;4974040;28;20130;-81
2022/08/27 02:28:46;;;;;;;5.70;2.67;;;;;;;;;;4958408;28;20571;-82
2022/08/27 02:31:12;;;;;;;4.00;2.50;;;;;;;;;;4974821;28;20050;-81
2022/08/27 02:33:39;;;;;;;4.38;2.88;;;;;;;;;;4973632;28;20134;-82
2022/08/27 02:36:05;;;;;;;4.47;2.30;;;;;;;;;;4967714;28;20481;-81
2022/08/27 02:38:31;;;;;;;4.82;2.67;;;;;;;;;;4967411;28;20046;-81
2022/08/27 02:40:57;;;;;;;5.13;2.58;;;;;;;;;;4954082;28;20047;-81
2022/08/27 02:43:23;;;;;;;5.30;2.35;;;;;;;;;;4960917;28;20041;-81
2022/08/27 02:45:50;;;;;;;3.78;2.30;;;;;;;;;;4953365;28;20094;-82
2022/08/27 02:48:16;;;;;;;7.22;2.40;;;;;;;;;;4953212;28;20055;-81
2022/08/27 02:50:44;;;;;;;5.57;2.50;;;;;;;;;;4954122;28;20526;-81
2022/08/27 02:53:10;;;;;;;6.78;2.75;;;;;;;;;;4952861;28;20054;-81
2022/08/27 02:55:36;;;;;;;4.70;2.42;;;;;;;;;;4956198;28;20051;-81
2022/08/27 02:58:02;;;;;;;3.65;2.60;;;;;;;;;;4966557;28;20082;-81
2022/08/27 03:00:29;;;;;;;6.05;2.92;;;;;;;;;;4954984;28;20051;-81
2022/08/27 03:02:55;;;;;;;5.13;2.58;;;;;;;;;;4953569;28;20077;-81
2022/08/27 03:05:21;;;;;;;4.78;2.50;;;;;;;;;;4955418;28;20055;-82
2022/08/27 03:07:48;;;;;;;4.32;2.60;;;;;;;;;;4953321;28;20416;-81
2022/08/27 03:10:15;;;;;;;5.40;2.97;;;;;;;;;;4954339;28;20058;-81
2022/08/27 03:12:41;;;;;;;4.90;2.67;;;;;;;;;;4960700;28;20039;-82
2022/08/27 03:15:09;;;;;;;6.32;2.88;;;;;;;;;;4962406;28;20102;-81
2022/08/27 03:20:20;;;;;;;6.20;2.97;;;;;;;;;;4954317;28;20130;-81
2022/08/27 03:22:46;;;;;;;4.43;3.03;;;;;;;;;;4953512;28;20404;-81
2022/08/27 03:25:12;;;;;;;6.43;3.10;;;;;;;;;;4953534;28;20085;-81
2022/08/27 03:27:38;;;;;;;5.55;3.13;;;;;;;;;;4958976;28;20524;-81
2022/08/27 03:30:06;;;;;;;5.30;3.13;;;;;;;;;;4970103;28;20054;-81
2022/08/27 03:32:32;;;;;;;4.00;3.03;;;;;;;;;;4956987;28;20405;-82
2022/08/27 03:34:58;;;;;;;5.97;2.92;;;;;;;;;;4956670;28;20126;-81
2022/08/27 03:37:24;;;;;;;3.30;2.75;;;;;;;;;;4964354;28;20056;-82
2022/08/27 03:39:50;;;;;;;5.57;3.15;;;;;;;;;;4953723;28;20544;-82
2022/08/27 03:42:16;;;;;;;6.95;3.28;;;;;;;;;;4957598;28;20039;-82
2022/08/27 03:44:43;;;;;;;4.63;3.08;;;;;;;;;;4951600;28;20114;-82
2022/08/27 03:47:09;;;;;;;6.47;2.92;;;;;;;;;;4936299;29;20118;-82
2022/08/27 03:49:36;;;;;;;5.47;3.15;;;;;;;;;;4953308;28;20139;-81
2022/08/27 03:52:02;;;;;;;6.72;3.38;;;;;;;;;;4953512;29;20047;-82
2022/08/27 03:54:28;;;;;;;5.35;3.20;;;;;;;;;;4954611;28;20047;-82
2022/08/27 03:56:54;;;;;;;5.45;2.85;;;;;;;;;;4953435;28;20057;-81
2022/08/27 03:59:20;;;;;;;7.40;3.30;;;;;;;;;;4963681;28;20086;-82
2022/08/27 04:01:46;;;;;;;5.10;2.97;;;;;;;;;;4954293;29;20054;-82
2022/08/27 04:04:12;;;;;;;4.13;3.10;;;;;;;;;;4940694;28;20043;-81
2022/08/27 04:06:39;;;;;;;6.28;3.08;;;;;;;;;;4973022;28;20178;-81
2022/08/27 04:09:05;;;;;;;10.55;3.38;;;;;;;;;;4965006;28;20031;-81
2022/08/27 04:11:33;;;;;;;5.82;3.60;;;;;;;;;;4954711;28;20050;-82
2022/08/27 04:14:00;;;;;;;4.47;3.10;;;;;;;;;;4964432;28;20039;-81
2022/08/27 04:16:26;;;;;;;5.38;3.10;;;;;;;;;;4952050;28;20052;-82
2022/08/27 04:18:54;;;;;;;5.43;2.85;;;;;;;;;;4951955;28;20058;-81
2022/08/27 04:21:22;;;;;;;6.53;2.88;;;;;;;;;;4952772;28;20047;-82
2022/08/27 04:23:48;;;;;;;7.03;3.20;;;;;;;;;;4953258;28;20501;-82
2022/08/27 04:26:14;;;;;;;5.25;2.70;;;;;;;;;;4951916;29;20536;-82
2022/08/27 04:28:40;;;;;;;4.78;2.97;;;;;;;;;;4966699;28;20043;-82
2022/08/27 04:31:06;;;;;;;6.35;3.05;;;;;;;;;;4951939;28;20050;-82
2022/08/27 04:33:33;;;;;;;6.43;2.88;;;;;;;;;;4952066;28;20055;-82
2022/08/27 04:36:03;;;;;;;5.93;3.25;;;;;;;;;;4943103;28;20138;-82
2022/08/27 04:38:29;;;;;;;6.97;2.90;;;;;;;;;;4951249;28;20062;-82
2022/08/27 04:43:40;;;;;;;6.25;2.70;;;;;;;;;;4964994;28;20047;-82
2022/08/27 04:46:06;;;;;;;8.95;3.38;;;;;;;;;;4958185;28;20043;-82
2022/08/27 04:48:32;;;;;;;4.53;2.72;;;;;;;;;;4954652;28;20408;-82
2022/08/27 04:50:58;;;;;;;9.00;3.33;;;;;;;;;;4934677;28;20093;-82
2022/08/27 04:53:24;;;;;;;8.23;2.92;;;;;;;;;;4950233;28;20129;-82
2022/08/27 04:55:52;;;;;;;8.15;2.90;;;;;;;;;;4954033;28;20054;-82
2022/08/27 04:58:19;;;;;;;6.22;2.60;;;;;;;;;;4952584;28;20047;-81
2022/08/27 05:00:50;;;;;;;6.15;2.63;;;;;;;;;;4969973;28;20051;-82
2022/08/27 05:03:17;;;;;;;5.70;2.95;;;;;;;;;;4954690;28;20067;-82
2022/08/27 05:05:43;;;;;;;6.30;2.50;;;;;;;;;;4970513;28;20105;-82
2022/08/27 05:08:11;;;;;;;8.38;3.10;;;;;;;;;;4956244;28;20043;-82
2022/08/27 05:10:42;;;;;;;3.95;2.20;;;;;;;;;;4952791;28;20043;-82
2022/08/27 05:13:08;;;;;;;6.55;2.80;;;;;;;;;;4966090;28;20042;-81
2022/08/27 05:15:34;;;;;;;8.15;3.03;;;;;;;;;;4957102;28;20043;-82
2022/08/27 05:18:00;;;;;;;5.95;2.88;;;;;;;;;;4966813;28;20090;-82
2022/08/27 05:20:28;;;;;;;4.65;2.25;;;;;;;;;;4969847;28;20043;-82
2022/08/27 05:22:54;;;;;;;6.43;2.30;;;;;;;;;;4970364;28;20109;-82
2022/08/27 05:25:21;;;;;;;6.32;2.63;;;;;;;;;;4972478;28;20093;-82
2022/08/27 05:27:47;;;;;;;6.85;2.63;;;;;;;;;;4973384;28;20121;-82
2022/08/27 05:30:13;;;;;;;5.60;2.80;;;;;;;;;;4969913;28;20122;-82
2022/08/27 05:32:39;;;;;;;6.70;2.85;;;;;;;;;;4971739;28;20054;-82
2022/08/27 05:35:06;;;;;;;7.65;3.00;;;;;;;;;;4971116;28;20093;-82
2022/08/27 05:37:33;;;;;;;7.15;2.58;;;;;;;;;;4967074;28;20039;-82
2022/08/27 05:39:59;;;;;;;4.05;2.22;;;;;;;;;;4952175;28;20063;-81
2022/08/27 05:42:25;;;;;;;6.22;2.38;;;;;;;;;;4952702;28;20401;-82
2022/08/27 05:44:52;;;;;;;6.20;2.17;;;;;;;;;;4954595;28;20059;-81
2022/08/27 05:47:18;;;;;;;6.13;2.70;;;;;;;;;;4952073;29;20119;-82
2022/08/27 05:49:44;;;;;;;7.07;2.30;;;;;;;;;;4951340;28;20043;-82
2022/08/27 05:52:10;;;;;;;5.43;2.67;;;;;;;;;;4952514;28;20046;-82
2022/08/27 05:54:37;;;;;;;4.75;2.35;;;;;;;;;;4956847;28;20134;-82
2022/08/27 05:57:03;;;;;;;3.33;2.05;;;;;;;;;;4958418;28;20042;-83
2022/08/27 06:02:13;;;;;;;7.20;2.97;;;;;;;;;;4965720;28;20419;-82
2022/08/27 06:04:39;;;;;;;6.15;2.50;;;;;;;;;;4964186;28;20039;-81
2022/08/27 06:07:08;;;;;;;6.18;2.50;;;;;;;;;;4954843;28;20154;-81
2022/08/27 06:09:34;;;;;;;6.90;2.35;;;;;;;;;;4963212;28;20548;-81
2022/08/27 06:12:01;;;;;;;6.43;2.38;;;;;;;;;;4952495;28;20047;-81
2022/08/27 06:14:27;;;;;;;6.20;2.50;;;;;;;;;;4953576;28;20141;-82
2022/08/27 06:16:54;;;;;;;6.60;2.60;;;;;;;;;;4973190;28;20050;-81
2022/08/27 06:19:20;;;;;;;6.43;2.70;;;;;;;;;;4961828;28;20485;-82
2022/08/27 06:21:46;;;;;;;6.93;2.65;;;;;;;;;;4952787;28;20039;-83
2022/08/27 06:24:13;;;;;;;7.10;2.70;;;;;;;;;;4953001;28;20092;-82
2022/08/27 06:26:41;;;;;;;5.60;2.50;;;;;;;;;;4948332;28;20042;-81
2022/08/27 06:29:08;;;;;;;6.80;2.40;;;;;;;;;;4949841;28;20425;-81
2022/08/27 06:31:34;;;;;;;5.80;2.40;;;;;;;;;;4947965;28;20054;-81
2022/08/27 06:34:01;;;;;;;7.25;2.40;;;;;;;;;;4948533;28;20129;-81
2022/08/27 06:36:28;;;;;;;7.13;2.75;;;;;;;;;;4950358;28;20508;-81
2022/08/27 06:38:54;;;;;;;6.50;2.42;;;;;;;;;;4933893;28;20086;-81
2022/08/27 06:41:21;;;;;;;5.13;2.30;;;;;;;;;;4949889;28;20487;-81
2022/08/27 06:43:47;;;;;;;7.75;2.25;;;;;;;;;;4953754;28;20047;-81
2022/08/27 06:46:15;;;;;;;7.68;2.38;;;;;;;;;;4949181;28;20129;-81
2022/08/27 06:48:45;;;;;;;5.97;2.33;;;;;;;;;;4951800;28;21620;-82
2022/08/27 06:51:32;;;;;;;5.32;2.30;;;;;;;;;;4951303;28;20051;-86
2022/08/27 06:53:58;;;;;;;;;;;;;;;;;;4965594;28;20042;-86
2022/08/27 06:56:24;;;;;;;5.05;2.17;;;;;;;;;;4960441;28;19972;-86
2022/08/27 06:58:54;;;;;;;10.18;2.80;;;;;;;;;;4955322;28;20078;-86
2022/08/27 07:01:22;;;;;;;4.57;2.40;;;;;;;;;;4963877;28;20135;-86
2022/08/27 07:03:49;;;;;;;4.25;2.08;;;;;;;;;;4942953;28;20050;-87
2022/08/27 07:06:16;;;;;;;10.82;2.58;;;;;;;;;;4953000;28;20055;-84
2022/08/27 07:08:42;;;;;;;8.00;2.30;;;;;;;;;;4964522;28;20053;-85
2022/08/27 07:11:10;;;;;;;4.35;2.10;;;;;;;;;;4970178;28;20051;-82
2022/08/27 07:13:37;;;;;;;6.43;2.20;;;;;;;;;;4964432;28;20322;-82
2022/08/27 07:16:04;;;;;;;5.18;2.13;;;;;;;;;;4964398;28;20228;-82
2022/08/27 07:18:30;;;;;;;4.95;2.35;;;;;;;;;;4958782;28;20405;-82
2022/08/27 07:20:56;;;;;;;7.57;2.00;;;;;;;;;;4954004;28;20492;-81
2022/08/27 07:23:22;;;;;;;5.82;2.00;;;;;;;;;;4951441;28;20051;-82
2022/08/27 07:25:48;;;;;;;7.15;2.20;;;;;;;;;;4960734;28;20043;-82
2022/08/27 07:28:14;;;;;;;7.25;1.90;;;;;;;;;;4954143;28;20051;-82
2022/08/27 07:30:40;;;;;;;8.63;2.50;;;;;;;;;;4958492;28;20035;-82
2022/08/27 07:33:07;;;;;;;7.78;2.53;;;;;;;;;;4953810;28;20082;-82
2022/08/27 07:35:33;;;;;;;6.13;2.00;;;;;;;;;;4953201;29;20051;-82
2022/08/27 07:37:59;;;;;;;7.75;2.42;;;;;;;;;;4946251;29;20058;-82
2022/08/27 07:40:25;;;;;;;6.07;2.17;;;;;;;;;;4953962;28;20060;-82
2022/08/27 07:45:42;;;;;;;6.00;2.38;;;;;;;;;;4954478;28;20098;-82
2022/08/27 07:48:09;;;;;;;8.18;2.30;;;;;;;;;;4952193;28;20063;-82
2022/08/27 07:50:35;;;;;;;3.80;1.63;;;;;;;;;;4954084;28;20069;-82
2022/08/27 07:53:01;;;;;;;6.82;2.15;;;;;;;;;;4947319;29;20047;-82
2022/08/27 07:55:27;;;;;;;5.60;2.10;;;;;;;;;;4953678;28;20050;-80
2022/08/27 07:57:53;;;;;;;7.90;2.20;;;;;;;;;;4952325;28;20051;-80
2022/08/27 08:00:20;;;;;;;5.50;2.25;;;;;;;;;;4965872;28;20081;-80
2022/08/27 08:02:46;;;;;;;8.20;2.70;;;;;;;;;;4963413;28;20051;-80
2022/08/27 08:05:15;;;;;;;7.53;1.80;;;;;;;;;;4953703;28;20058;-80
2022/08/27 08:07:41;;;;;;;4.25;2.03;;;;;;;;;;4952594;28;20350;-80
2022/08/27 08:10:09;;;;;;;10.13;2.00;;;;;;;;;;4951651;28;20453;-80
2022/08/27 08:12:39;;;;;;;5.38;2.25;;;;;;;;;;4952394;28;20097;-80
2022/08/27 08:15:08;;;;;;;5.03;2.00;;;;;;;;;;4955097;28;20047;-80
2022/08/27 08:17:40;;;;;;;4.28;1.90;;;;;;;;;;4952626;29;20062;-80
2022/08/27 08:20:08;;;;;;;6.22;2.10;;;;;;;;;;4952853;28;20501;-80
2022/08/27 08:22:34;;;;;;;7.90;2.35;;;;;;;;;;4953132;28;20524;-80
2022/08/27 08:25:00;;;;;;;4.85;1.80;;;;;;;;;;4949367;29;20113;-80
2022/08/27 08:27:27;;;;;;;4.20;2.13;;;;;;;;;;4952718;28;20079;-80
2022/08/27 08:29:53;;;;;;;6.32;1.80;;;;;;;;;;4965319;28;20098;-82
2022/08/27 08:32:20;;;;;;;6.88;2.05;;;;;;;;;;4983269;23;20051;-83
2022/08/27 08:34:47;;;;;;;6.53;2.17;;;;;;;;;;4953315;28;20695;-82
2022/08/27 08:37:13;;;;;;;3.58;1.85;;;;;;;;;;4953976;28;20046;-82
2022/08/27 08:39:40;;;;;;;6.35;2.17;;;;;;;;;;4954389;29;20051;-84
2022/08/27 08:42:22;;;;;;;6.63;2.17;;;;;;;;;;4954987;28;20043;-83
2022/08/27 08:44:52;;;;;;;4.25;1.88;;;;;;;;;;4954555;28;20039;-83
2022/08/27 08:47:23;;;;;;;4.90;1.88;;;;;;;;;;4955650;28;20350;-82
2022/08/27 08:49:54;;;;;;;5.75;1.85;;;;;;;;;;4953773;28;20105;-83
2022/08/27 08:52:39;;;;;;;5.05;1.88;;;;;;;;;;4955371;28;20047;-84
2022/08/27 08:55:13;;;;;;;3.97;1.60;;;;;;;;;;4952481;28;20171;-83
2022/08/27 08:57:43;;;;;;;5.22;1.98;;;;;;;;;;4954551;28;20046;-83
2022/08/27 09:00:12;;;;;;;4.32;2.00;;;;;;;;;;4951677;29;20618;-83
2022/08/27 09:02:38;;;;;;;5.10;1.90;;;;;;;;;;4955025;28;20134;-83
2022/08/27 09:05:08;;;;;;;4.10;1.80;;;;;;;;;;4953124;28;20058;-82
2022/08/27 09:07:44;;;;;;;7.18;2.00;;;;;;;;;;4953004;28;20082;-85
2022/08/27 09:10:16;;;;;;;5.20;2.05;;;;;;;;;;4948928;28;20131;-84
2022/08/27 09:12:42;;;;;;;11.45;2.38;;;;;;;;;;4934873;29;20063;-83
2022/08/27 09:15:23;;;;;;;4.53;1.67;;;;;;;;;;4941677;29;20066;-84
2022/08/27 09:17:50;;;;;;;5.97;1.80;;;;;;;;;;4954477;28;20050;-83
2022/08/27 09:20:20;;;;;;;4.95;1.63;;;;;;;;;;4952967;28;20449;-83
2022/08/27 09:22:47;;;;;;;4.72;1.83;;;;;;;;;;4954253;28;20055;-83
2022/08/27 09:25:15;;;;;;;9.80;2.10;;;;;;;;;;4950712;29;20094;-83
2022/08/27 09:27:42;;;;;;;3.47;1.80;;;;;;;;;;4954550;28;20509;-82
2022/08/27 09:30:10;;;;;;;3.80;1.70;;;;;;;;;;4954231;28;20047;-81
2022/08/27 09:32:39;;;;;;;9.35;1.80;;;;;;;;;;4954514;28;20087;-84
2022/08/27 09:35:07;;;;;;;5.72;2.20;;;;;;;;;;4954951;28;20054;-83
2022/08/27 09:37:39;;;;;;;4.72;1.90;;;;;;;;;;4953331;28;20047;-82
2022/08/27 09:40:08;;;;;;;4.60;1.50;;;;;;;;;;4952790;28;20496;-84
2022/08/27 09:42:52;;;;;;;5.78;2.03;;;;;;;;;;4954409;28;20106;-84
2022/08/27 09:45:18;;;;;;;5.85;1.90;;;;;;;;;;4951703;28;20419;-84
2022/08/27 09:47:48;;;;;;;3.90;1.80;;;;;;;;;;4954725;28;20066;-84
2022/08/27 09:50:16;;;;;;;4.07;1.42;;;;;;;;;;4958646;28;20509;-85
2022/08/27 09:52:55;;;;;;;5.60;1.70;;;;;;;;;;4957251;28;20051;-84
2022/08/27 09:55:34;;;;;;;7.45;1.80;;;;;;;;;;4945613;29;20535;-85
2022/08/27 09:58:01;;;;;;;6.47;2.10;;;;;;;;;;4957687;28;20065;-84
2022/08/27 10:00:36;;;;;;;6.35;2.15;;;;;;;;;;4952644;28;20091;-83
2022/08/27 10:03:02;;;;;;;3.97;1.80;;;;;;;;;;4955590;28;20520;-83
2022/08/27 10:05:52;;;;;;;10.32;1.90;;;;;;;;;;4955225;28;20138;-83
2022/08/27 10:08:25;;;;;;;5.63;1.80;;;;;;;;;;4954989;28;20408;-83
2022/08/27 10:10:51;;;;;;;3.70;1.83;;;;;;;;;;4946166;28;20503;-83
2022/08/27 10:13:19;;;;;;;4.97;1.60;;;;;;;;;;4956757;29;20055;-85
2022/08/27 10:15:45;;;;;;;4.50;1.80;;;;;;;;;;4956534;28;20053;-82
2022/08/27 10:18:17;;;;;;;4.25;2.05;;;;;;;;;;4958176;28;20110;-83
2022/08/27 10:21:04;;;;;;;6.72;1.98;;;;;;;;;;4957083;28;20058;-84
2022/08/27 10:23:35;;;;;;;4.85;1.92;;;;;;;;;;4958111;28;20051;-83
2022/08/27 10:26:11;;;;;;;5.82;2.03;;;;;;;;;;4956686;28;20079;-83
2022/08/27 10:28:48;;;;;;;6.75;1.88;;;;;;;;;;4957743;28;20047;-85
2022/08/27 10:31:31;;;;;;;5.72;1.73;;;;;;;;;;4955919;29;20051;-82
2022/08/27 10:34:03;;;;;;;3.80;1.38;;;;;;;;;;4947310;28;20063;-83
2022/08/27 10:36:35;;;;;;;8.48;2.00;;;;;;;;;;4956481;29;20055;-83
2022/08/27 10:39:08;;;;;;;5.53;2.40;;;;;;;;;;4956021;29;20150;-84
2022/08/27 10:41:41;;;;;;;3.78;1.67;;;;;;;;;;4942718;28;20082;-83
2022/08/27 10:44:23;;;;;;;7.65;1.88;;;;;;;;;;4957289;28;20051;-82
2022/08/27 10:46:58;;;;;;;4.07;1.90;;;;;;;;;;4957139;28;20054;-84
2022/08/27 10:49:24;;;;;;;6.78;1.65;;;;;;;;;;4956828;28;20125;-82
2022/08/27 10:51:57;;;;;;;4.47;1.80;;;;;;;;;;4956180;28;20039;-84
2022/08/27 10:54:39;;;;;;;4.50;1.60;;;;;;;;;;4953622;28;20043;-82
2022/08/27 10:57:25;;;;;;;5.55;1.85;;;;;;;;;;4955625;29;20524;-84
2022/08/27 11:00:01;;;;;;;7.43;1.88;;;;;;;;;;4949627;28;20543;-84
2022/08/27 11:02:34;;;;;;;4.85;2.00;;;;;;;;;;4955091;28;20043;-82
2022/08/27 11:05:09;;;;;;;4.70;1.80;;;;;;;;;;4956373;28;20107;-83
2022/08/27 11:07:41;;;;;;;5.32;1.70;;;;;;;;;;4956297;28;20054;-84
2022/08/27 11:10:22;;;;;;;8.30;1.90;;;;;;;;;;4943838;28;20059;-83
2022/08/27 11:12:51;;;;;;;4.63;1.80;;;;;;;;;;4953766;29;20077;-83
2022/08/27 11:15:19;;;;;;;4.45;1.80;;;;;;;;;;4938773;29;20051;-83
2022/08/27 11:17:54;;;;;;;4.05;1.55;;;;;;;;;;4956815;29;20047;-84
2022/08/27 11:20:26;;;;;;;3.75;1.85;;;;;;;;;;4954738;28;20035;-84
2022/08/27 11:22:58;;;;;;;3.42;1.63;;;;;;;;;;4957053;28;20385;-85
2022/08/27 11:25:45;;;;;;;4.15;1.90;;;;;;;;;;4956637;28;20523;-83
2022/08/27 11:28:12;;;;;;;4.22;1.60;;;;;;;;;;4956551;28;20043;-83
2022/08/27 11:30:50;;;;;;;5.70;1.75;;;;;;;;;;4936131;29;20134;-82
2022/08/27 11:33:27;;;;;;;5.32;1.80;;;;;;;;;;4927073;29;20056;-83
2022/08/27 11:36:08;;;;;;;5.50;1.98;;;;;;;;;;4937822;29;20051;-82
2022/08/27 11:38:34;;;;;;;5.60;1.75;;;;;;;;;;4947837;28;20051;-84
2022/08/27 11:41:20;;;;;;;5.13;1.85;;;;;;;;;;4956886;28;20043;-84
2022/08/27 11:43:46;;;;;;;5.57;2.08;;;;;;;;;;4955911;28;20070;-83
2022/08/27 11:46:24;;;;;;;2.78;1.58;;;;;;;;;;4955178;28;20086;-84
2022/08/27 11:49:01;;;;;;;5.40;1.88;;;;;;;;;;4957188;28;20043;-83
2022/08/27 11:51:33;;;;;;;8.10;2.33;;;;;;;;;;4955832;29;20126;-82
2022/08/27 11:54:09;;;;;;;5.80;2.10;;;;;;;;;;4954655;29;20055;-84
2022/08/27 11:56:40;;;;;;;3.88;1.98;;;;;;;;;;4936450;28;20082;-85
2022/08/27 11:59:09;;;;;;;4.05;2.10;;;;;;;;;;4938872;29;20047;-83
2022/08/27 12:01:39;;;;;;;5.78;2.13;;;;;;;;;;4956496;28;20528;-83
2022/08/27 12:04:44;;;;;;;6.13;2.72;;;;;;;;;;4954404;28;20141;-82
2022/08/27 12:07:20;;;;;;;4.97;2.33;;;;;;;;;;4896105;29;20052;-83
2022/08/27 12:09:46;;;;;;;4.85;2.58;;;;;;;;;;4896246;29;20447;-83
2022/08/27 12:12:19;;;;;;;6.80;2.45;;;;;;;;;;4896602;29;20052;-82
2022/08/27 12:14:48;;;;;;;6.07;2.78;;;;;;;;;;4879020;29;20180;-82
2022/08/27 12:17:29;;;;;;;4.65;2.35;;;;;;;;;;4862444;29;20063;-84
2022/08/27 12:20:04;;;;;;;4.38;2.40;;;;;;;;;;4896917;29;20045;-83
2022/08/27 12:23:38;;;;;;;5.35;2.20;;;;;;;;;;4897374;29;20044;-84
2022/08/27 12:25:28;;;;;;;5.05;2.00;;;;;;;;;;4894756;29;20132;-83
2022/08/27 12:27:57;;;;;;;6.15;2.65;;;;;;;;;;4863518;29;20097;-85
2022/08/27 12:30:38;;;;;;;5.68;2.30;;;;;;;;;;4889383;29;20119;-83
2022/08/27 12:33:29;;;;;;;8.73;3.17;;;;;;;;;;4896865;29;20093;-83
2022/08/27 12:36:19;;;;;;;6.13;2.50;;;;;;;;;;4895930;29;20059;-83
2022/08/27 12:38:51;;;;;;;4.90;2.33;;;;;;;;;;4930618;28;20516;-84
2022/08/27 12:41:44;;;;;;;7.47;2.85;;;;;;;;;;4954460;28;20093;-83
2022/08/27 12:44:12;;;;;;;8.25;2.70;;;;;;;;;;4934796;28;20051;-84
2022/08/27 12:46:54;;;;;;;6.15;2.65;;;;;;;;;;4938853;29;20416;-83
2022/08/27 12:49:26;;;;;;;8.63;2.75;;;;;;;;;;4938257;29;20047;-83
2022/08/27 12:52:04;;;;;;;5.72;2.25;;;;;;;;;;4953763;28;20048;-84
2022/08/27 12:54:41;;;;;;;6.88;2.38;;;;;;;;;;4938988;29;20142;-83
2022/08/27 12:57:10;;;;;;;7.68;2.33;;;;;;;;;;4936692;29;20051;-85
2022/08/27 12:59:45;;;;;;;6.45;2.15;;;;;;;;;;4945078;28;20047;-83
2022/08/27 13:02:16;;;;;;;8.43;2.63;;;;;;;;;;4954439;28;20094;-83
2022/08/27 13:04:46;;;;;;;6.60;2.83;;;;;;;;;;4937988;29;20394;-84
2022/08/27 13:07:25;;;;;;;6.22;2.40;;;;;;;;;;4953934;28;20043;-83
2022/08/27 13:09:51;;;;;;;7.70;3.17;;;;;;;;;;4953986;28;20050;-82
2022/08/27 13:12:18;;;;;;;4.97;2.42;;;;;;;;;;4954423;28;20047;-83
2022/08/27 13:14:47;;;;;;;7.60;2.60;;;;;;;;;;4938032;29;20047;-83
2022/08/27 13:17:21;;;;;;;6.10;2.47;;;;;;;;;;4937781;29;20493;-82
2022/08/27 13:19:49;;;;;;;5.65;2.50;;;;;;;;;;4937669;28;20519;-82
2022/08/27 13:22:30;;;;;;;6.15;3.05;;;;;;;;;;4938390;29;20039;-82
2022/08/27 13:24:58;;;;;;;6.45;2.50;;;;;;;;;;4956907;28;20043;-83
2022/08/27 13:27:32;;;;;;;5.85;3.20;;;;;;;;;;4938335;29;20051;-84
2022/08/27 13:30:00;;;;;;;5.97;2.40;;;;;;;;;;4954733;29;20102;-85
2022/08/27 13:32:30;;;;;;;3.25;2.38;;;;;;;;;;4942107;28;20055;-82
2022/08/27 13:34:59;;;;;;;8.23;2.83;;;;;;;;;;4941499;29;20493;-84
2022/08/27 13:37:32;;;;;;;6.68;3.28;;;;;;;;;;4957316;29;20035;-84
2022/08/27 13:39:58;;;;;;;9.25;2.92;;;;;;;;;;4956888;28;20090;-83
2022/08/27 13:42:27;;;;;;;6.63;2.92;;;;;;;;;;4941238;29;20043;-84
2022/08/27 13:44:55;;;;;;;5.30;2.63;;;;;;;;;;4955647;29;20122;-83
2022/08/27 13:47:24;;;;;;;6.43;3.00;;;;;;;;;;4941111;29;20047;-83
2022/08/27 13:49:53;;;;;;;6.57;2.60;;;;;;;;;;4957148;29;20043;-82
2022/08/27 13:55:22;;;;;;;9.13;2.92;;;;;;;;;;4917343;29;20087;-83
2022/08/27 13:57:49;;;;;;;6.10;3.40;;;;;;;;;;4941295;29;20059;-85
2022/08/27 14:00:19;;;;;;;5.68;2.60;;;;;;;;;;4940661;28;20035;-86
2022/08/27 14:02:51;;;;;;;6.13;3.10;;;;;;;;;;4942082;29;20091;-83
2022/08/27 14:05:20;;;;;;;7.03;3.00;;;;;;;;;;4953778;29;20047;-83
2022/08/27 14:07:51;;;;;;;8.68;2.85;;;;;;;;;;4940025;29;20059;-84
2022/08/27 14:10:17;;;;;;;4.38;2.70;;;;;;;;;;4956375;28;20045;-83
2022/08/27 14:12:45;;;;;;;5.45;2.85;;;;;;;;;;4956503;28;20123;-83
2022/08/27 14:15:20;;;;;;;8.32;3.55;;;;;;;;;;4939394;29;20515;-83
2022/08/27 14:17:46;;;;;;;5.82;2.90;;;;;;;;;;4940887;29;20054;-83
2022/08/27 14:20:14;;;;;;;7.28;2.80;;;;;;;;;;4955403;28;20042;-83
2022/08/27 14:22:43;;;;;;;8.32;2.90;;;;;;;;;;4940782;29;20047;-83
2022/08/27 14:25:10;;;;;;;6.53;2.92;;;;;;;;;;4956145;28;20063;-83
2022/08/27 14:27:37;;;;;;;7.60;2.95;;;;;;;;;;4956784;28;20039;-83
2022/08/27 14:30:08;;;;;;;4.80;2.80;;;;;;;;;;4940053;29;20544;-83
2022/08/27 14:32:34;;;;;;;8.20;3.45;;;;;;;;;;4939923;28;20501;-83
2022/08/27 14:35:00;;;;;;;5.03;2.60;;;;;;;;;;4939160;29;20047;-82
2022/08/27 14:37:29;;;;;;;6.28;2.90;;;;;;;;;;4956570;28;20512;-85
2022/08/27 14:39:55;;;;;;;11.18;3.50;;;;;;;;;;4956028;28;20054;-82
2022/08/27 14:42:28;;;;;;;9.35;3.17;;;;;;;;;;4939941;29;20043;-83
2022/08/27 14:44:54;;;;;;;5.90;2.50;;;;;;;;;;4940239;29;20044;-83
2022/08/27 14:47:20;;;;;;;7.82;3.05;;;;;;;;;;4939644;28;20099;-84
2022/08/27 14:49:47;;;;;;;7.95;2.67;;;;;;;;;;4952779;28;20040;-83
2022/08/27 14:52:14;;;;;;;7.50;3.20;;;;;;;;;;4937369;29;20111;-83
2022/08/27 14:54:41;;;;;;;6.88;2.63;;;;;;;;;;4931186;29;20544;-82
2022/08/27 14:57:10;;;;;;;5.80;2.63;;;;;;;;;;4936899;29;20074;-84
2022/08/27 14:59:39;;;;;;;6.40;2.80;;;;;;;;;;4939470;28;20055;-83
2022/08/27 15:02:10;;;;;;;5.90;2.75;;;;;;;;;;4940498;29;20057;-82
2022/08/27 15:04:39;;;;;;;7.15;3.05;;;;;;;;;;4939566;29;20043;-83
2022/08/27 15:07:06;;;;;;;6.50;3.17;;;;;;;;;;4955558;28;20039;-82
2022/08/27 15:09:32;;;;;;;5.80;3.00;;;;;;;;;;4955648;28;20106;-84